createdAt,value
2016-08-16T00:00:47.595Z,1039.85
2016-08-16T00:01:47.590Z,1039.84
2016-08-16T00:02:47.583Z,1039.85
2016-08-16T00:03:47.576Z,1039.84
2016-08-16T00:04:47.573Z,1039.78
2016-08-16T00:05:47.568Z,1039.81
2016-08-16T00:06:47.560Z,1039.81
2016-08-16T00:07:47.556Z,1039.77
2016-08-16T00:08:47.549Z,1039.78
2016-08-16T00:09:47.547Z,1039.78
2016-08-16T00:10:47.542Z,1039.74
2016-08-16T00:11:47.535Z,1039.73
2016-08-16T00:12:47.529Z,1039.7
2016-08-16T00:13:47.521Z,1039.7
2016-08-16T00:14:47.515Z,1039.65
2016-08-16T00:15:47.514Z,1039.59
2016-08-16T00:16:47.504Z,1039.61
2016-08-16T00:17:47.604Z,1039.59
2016-08-16T00:18:47.497Z,1039.58
2016-08-16T00:19:48.678Z,1039.57
2016-08-16T00:20:47.482Z,1039.56
2016-08-16T00:21:47.477Z,1039.57
2016-08-16T00:22:47.635Z,1039.57
2016-08-16T00:23:47.465Z,1039.59
2016-08-16T00:24:47.467Z,1039.6
2016-08-16T00:25:47.454Z,1039.59
2016-08-16T00:26:47.450Z,1039.59
2016-08-16T00:27:47.443Z,1039.59
2016-08-16T00:28:47.438Z,1039.57
2016-08-16T00:29:47.435Z,1039.58
2016-08-16T00:30:47.427Z,1039.58
2016-08-16T00:31:47.422Z,1039.59
2016-08-16T00:32:47.417Z,1039.54
2016-08-16T00:33:47.410Z,1039.57
2016-08-16T00:34:47.516Z,1039.54
2016-08-16T00:35:47.402Z,1039.56
2016-08-16T00:36:47.397Z,1039.56
2016-08-16T00:37:47.387Z,1039.53
2016-08-16T00:38:47.385Z,1039.53
2016-08-16T00:39:47.382Z,1039.5
2016-08-16T00:40:47.371Z,1039.48
2016-08-16T00:41:47.365Z,1039.48
2016-08-16T00:42:47.360Z,1039.47
2016-08-16T00:43:47.355Z,1039.45
2016-08-16T00:44:47.349Z,1039.47
2016-08-16T00:45:47.346Z,1039.47
2016-08-16T00:46:47.341Z,1039.46
2016-08-16T00:47:47.334Z,1039.44
2016-08-16T00:48:47.327Z,1039.47
2016-08-16T00:49:47.322Z,1039.49
2016-08-16T00:50:47.318Z,1039.48
2016-08-16T00:51:47.311Z,1039.51
2016-08-16T00:52:47.306Z,1039.52
2016-08-16T00:53:47.298Z,1039.53
2016-08-16T00:54:47.296Z,1039.51
2016-08-16T00:55:47.288Z,1039.56
2016-08-16T00:56:47.281Z,1039.56
2016-08-16T00:57:48.332Z,1039.59
2016-08-16T00:58:47.271Z,1039.55
2016-08-16T00:59:47.267Z,1039.51
2016-08-16T01:00:47.260Z,1039.52
2016-08-16T01:01:47.503Z,1039.48
2016-08-16T01:02:47.247Z,1039.45
2016-08-16T01:03:47.241Z,1039.45
2016-08-16T01:04:47.238Z,1039.45
2016-08-16T01:05:47.230Z,1039.46
2016-08-16T01:06:47.226Z,1039.46
2016-08-16T01:08:47.219Z,1039.51
2016-08-16T01:09:47.205Z,1039.49
2016-08-16T01:10:47.604Z,1039.53
2016-08-16T01:11:47.195Z,1039.48
2016-08-16T01:12:47.189Z,1039.49
2016-08-16T01:13:47.287Z,1039.49
2016-08-16T01:14:47.185Z,1039.52
2016-08-16T01:15:47.173Z,1039.52
2016-08-16T01:16:47.169Z,1039.51
2016-08-16T01:17:47.160Z,1039.47
2016-08-16T01:18:47.156Z,1039.52
2016-08-16T01:19:47.152Z,1039.51
2016-08-16T01:20:47.145Z,1039.45
2016-08-16T01:21:47.138Z,1039.43
2016-08-16T01:22:47.133Z,1039.41
2016-08-16T01:23:47.128Z,1039.39
2016-08-16T01:24:47.120Z,1039.33
2016-08-16T01:25:47.114Z,1039.32
2016-08-16T01:26:47.110Z,1039.37
2016-08-16T01:27:47.104Z,1039.33
2016-08-16T01:28:47.101Z,1039.35
2016-08-16T01:29:47.095Z,1039.39
2016-08-16T01:30:47.100Z,1039.44
2016-08-16T01:31:47.081Z,1039.44
2016-08-16T01:32:47.075Z,1039.46
2016-08-16T01:33:47.070Z,1039.44
2016-08-16T01:34:47.066Z,1039.41
2016-08-16T01:35:47.260Z,1039.37
2016-08-16T01:36:47.055Z,1039.38
2016-08-16T01:38:47.399Z,1039.42
2016-08-16T01:39:47.669Z,1039.37
2016-08-16T01:40:47.029Z,1039.46
2016-08-16T01:41:47.035Z,1039.46
2016-08-16T01:42:47.018Z,1039.41
2016-08-16T01:43:47.011Z,1039.46
2016-08-16T01:44:47.006Z,1039.47
2016-08-16T01:45:47.311Z,1039.46
2016-08-16T01:46:47.225Z,1039.42
2016-08-16T01:47:46.990Z,1039.41
2016-08-16T01:48:46.985Z,1039.39
2016-08-16T01:49:46.975Z,1039.39
2016-08-16T01:50:46.973Z,1039.41
2016-08-16T01:51:46.965Z,1039.38
2016-08-16T01:52:46.961Z,1039.38
2016-08-16T01:53:46.955Z,1039.32
2016-08-16T01:54:46.969Z,1039.37
2016-08-16T01:55:46.945Z,1039.43
2016-08-16T01:56:46.939Z,1039.43
2016-08-16T01:57:46.929Z,1039.42
2016-08-16T01:58:46.924Z,1039.44
2016-08-16T01:59:46.920Z,1039.46
2016-08-16T02:00:46.911Z,1039.43
2016-08-16T02:01:46.906Z,1039.43
2016-08-16T02:02:46.902Z,1039.42
2016-08-16T02:03:46.897Z,1039.43
2016-08-16T02:04:46.887Z,1039.4
2016-08-16T02:05:46.884Z,1039.37
2016-08-16T02:06:46.879Z,1039.41
2016-08-16T02:07:46.872Z,1039.38
2016-08-16T02:08:46.866Z,1039.4
2016-08-16T02:09:46.859Z,1039.41
2016-08-16T02:10:46.854Z,1039.35
2016-08-16T02:11:46.847Z,1039.33
2016-08-16T02:12:46.841Z,1039.32
2016-08-16T02:13:46.836Z,1039.3
2016-08-16T02:14:46.828Z,1039.27
2016-08-16T02:15:47.139Z,1039.27
2016-08-16T02:16:46.815Z,1039.24
2016-08-16T02:17:47.011Z,1039.25
2016-08-16T02:18:47.056Z,1039.26
2016-08-16T02:19:46.798Z,1039.25
2016-08-16T02:20:47.242Z,1039.24
2016-08-16T02:21:46.787Z,1039.2
2016-08-16T02:22:46.781Z,1039.19
2016-08-16T02:23:46.773Z,1039.23
2016-08-16T02:24:46.769Z,1039.19
2016-08-16T02:25:47.162Z,1039.16
2016-08-16T02:26:46.756Z,1039.16
2016-08-16T02:27:46.751Z,1039.16
2016-08-16T02:28:46.743Z,1039.16
2016-08-16T02:29:47.388Z,1039.17
2016-08-16T02:30:46.732Z,1039.13
2016-08-16T02:31:46.726Z,1039.14
2016-08-16T02:32:46.718Z,1039.12
2016-08-16T02:33:46.715Z,1039.14
2016-08-16T02:34:46.707Z,1039.14
2016-08-16T02:35:46.701Z,1039.14
2016-08-16T02:36:46.698Z,1039.11
2016-08-16T02:37:46.696Z,1039.12
2016-08-16T02:38:46.683Z,1039.15
2016-08-16T02:39:46.678Z,1039.12
2016-08-16T02:40:46.672Z,1039.09
2016-08-16T02:41:46.974Z,1039.04
2016-08-16T02:42:46.658Z,1039.01
2016-08-16T02:43:46.652Z,1039.02
2016-08-16T02:44:46.648Z,1038.97
2016-08-16T02:45:46.641Z,1038.95
2016-08-16T02:46:46.636Z,1038.98
2016-08-16T02:47:46.632Z,1038.98
2016-08-16T02:48:46.621Z,1038.96
2016-08-16T02:49:46.616Z,1038.95
2016-08-16T02:50:46.610Z,1038.91
2016-08-16T02:51:46.603Z,1038.93
2016-08-16T02:52:46.599Z,1038.91
2016-08-16T02:53:46.591Z,1038.94
2016-08-16T02:54:46.590Z,1038.93
2016-08-16T02:55:47.725Z,1038.92
2016-08-16T02:56:46.757Z,1038.91
2016-08-16T02:57:47.810Z,1038.87
2016-08-16T02:58:46.763Z,1038.9
2016-08-16T02:59:46.555Z,1038.9
2016-08-16T03:00:46.549Z,1038.9
2016-08-16T03:01:46.543Z,1038.88
2016-08-16T03:02:46.538Z,1038.87
2016-08-16T03:03:46.534Z,1038.84
2016-08-16T03:04:46.526Z,1038.85
2016-08-16T03:05:46.523Z,1038.86
2016-08-16T03:06:46.856Z,1038.81
2016-08-16T03:07:46.508Z,1038.79
2016-08-16T03:08:46.504Z,1038.81
2016-08-16T03:09:46.498Z,1038.81
2016-08-16T03:10:46.490Z,1038.81
2016-08-16T03:11:46.487Z,1038.81
2016-08-16T03:12:46.478Z,1038.81
2016-08-16T03:13:46.474Z,1038.83
2016-08-16T03:14:46.467Z,1038.81
2016-08-16T03:15:46.461Z,1038.83
2016-08-16T03:16:46.454Z,1038.84
2016-08-16T03:17:46.454Z,1038.86
2016-08-16T03:18:46.442Z,1038.85
2016-08-16T03:19:46.435Z,1038.86
2016-08-16T03:20:46.433Z,1038.83
2016-08-16T03:21:46.426Z,1038.84
2016-08-16T03:22:46.420Z,1038.79
2016-08-16T03:23:46.415Z,1038.78
2016-08-16T03:24:46.409Z,1038.8
2016-08-16T03:25:46.399Z,1038.82
2016-08-16T03:26:46.394Z,1038.82
2016-08-16T03:27:46.389Z,1038.81
2016-08-16T03:28:46.385Z,1038.8
2016-08-16T03:29:46.376Z,1038.8
2016-08-16T03:30:46.372Z,1038.84
2016-08-16T03:31:46.363Z,1038.81
2016-08-16T03:32:46.357Z,1038.86
2016-08-16T03:33:46.354Z,1038.83
2016-08-16T03:34:46.696Z,1038.86
2016-08-16T03:35:46.741Z,1038.85
2016-08-16T03:37:46.327Z,1038.86
2016-08-16T03:38:46.322Z,1038.86
2016-08-16T03:39:46.315Z,1038.83
2016-08-16T03:40:46.309Z,1038.78
2016-08-16T03:41:46.304Z,1038.7
2016-08-16T03:42:46.296Z,1038.69
2016-08-16T03:43:46.741Z,1038.65
2016-08-16T03:44:46.286Z,1038.63
2016-08-16T03:45:46.980Z,1038.54
2016-08-16T03:46:46.271Z,1038.5
2016-08-16T03:47:46.265Z,1038.47
2016-08-16T03:48:46.260Z,1038.37
2016-08-16T03:49:46.254Z,1038.35
2016-08-16T03:50:46.248Z,1038.29
2016-08-16T03:51:46.245Z,1038.22
2016-08-16T03:52:46.239Z,1038.19
2016-08-16T03:53:46.241Z,1038.11
2016-08-16T03:54:46.226Z,1038.04
2016-08-16T03:55:46.222Z,1037.99
2016-08-16T03:56:46.216Z,1037.96
2016-08-16T03:57:46.208Z,1037.93
2016-08-16T03:58:46.202Z,1037.87
2016-08-16T03:59:46.197Z,1037.78
2016-08-16T04:00:46.190Z,1037.73
2016-08-16T04:01:46.182Z,1037.7
2016-08-16T04:02:46.177Z,1037.69
2016-08-16T04:03:46.171Z,1037.69
2016-08-16T04:04:46.165Z,1037.69
2016-08-16T04:05:46.162Z,1037.71
2016-08-16T04:06:46.155Z,1037.71
2016-08-16T04:07:46.152Z,1037.77
2016-08-16T04:08:46.143Z,1037.81
2016-08-16T04:09:46.137Z,1037.81
2016-08-16T04:10:46.132Z,1037.89
2016-08-16T04:11:46.128Z,1037.88
2016-08-16T04:12:46.320Z,1037.87
2016-08-16T04:13:46.230Z,1037.89
2016-08-16T04:14:46.262Z,1037.9
2016-08-16T04:15:46.106Z,1037.89
2016-08-16T04:16:46.142Z,1037.86
2016-08-16T04:17:46.156Z,1037.84
2016-08-16T04:18:46.090Z,1037.85
2016-08-16T04:19:46.251Z,1037.85
2016-08-16T04:20:46.077Z,1037.81
2016-08-16T04:21:46.071Z,1037.76
2016-08-16T04:22:46.067Z,1037.73
2016-08-16T04:23:46.064Z,1037.66
2016-08-16T04:24:46.971Z,1037.62
2016-08-16T04:25:46.050Z,1037.48
2016-08-16T04:26:46.047Z,1037.43
2016-08-16T04:27:46.041Z,1037.26
2016-08-16T04:28:46.484Z,1037.17
2016-08-16T04:29:46.039Z,1037.01
2016-08-16T04:30:46.023Z,1036.72
2016-08-16T04:31:46.019Z,1036.48
2016-08-16T04:32:46.014Z,1036.27
2016-08-16T04:33:46.008Z,1036.02
2016-08-16T04:34:46.006Z,1035.88
2016-08-16T04:35:45.998Z,1035.67
2016-08-16T04:36:45.995Z,1035.56
2016-08-16T04:37:45.992Z,1035.54
2016-08-16T04:38:45.987Z,1035.59
2016-08-16T04:39:45.985Z,1035.68
2016-08-16T04:40:45.980Z,1035.71
2016-08-16T04:41:45.986Z,1035.73
2016-08-16T04:42:45.971Z,1035.79
2016-08-16T04:43:45.968Z,1035.77
2016-08-16T04:44:45.968Z,1035.81
2016-08-16T04:45:45.961Z,1035.87
2016-08-16T04:46:45.956Z,1035.81
2016-08-16T04:47:45.954Z,1035.72
2016-08-16T04:48:45.953Z,1035.59
2016-08-16T04:49:45.949Z,1035.52
2016-08-16T04:50:45.944Z,1035.53
2016-08-16T04:51:45.941Z,1035.55
2016-08-16T04:54:45.935Z,1035.3
2016-08-16T04:55:46.086Z,1035
2016-08-16T04:56:45.929Z,1034.75
2016-08-16T04:57:45.925Z,1034.57
2016-08-16T04:58:45.940Z,1034.54
2016-08-16T04:59:45.920Z,1034.46
2016-08-16T05:00:45.918Z,1034.22
2016-08-16T05:01:46.014Z,1034.09
2016-08-16T05:02:46.112Z,1033.83
2016-08-16T05:03:45.912Z,1033.62
2016-08-16T05:04:46.261Z,1033.44
2016-08-16T05:05:46.307Z,1033.22
2016-08-16T05:06:45.909Z,1033.13
2016-08-16T05:07:45.905Z,1032.96
2016-08-16T05:08:45.903Z,1032.74
2016-08-16T05:09:45.903Z,1032.58
2016-08-16T05:10:45.902Z,1032.4
2016-08-16T05:11:45.904Z,1032.27
2016-08-16T05:12:45.903Z,1032.14
2016-08-16T05:13:45.904Z,1032.01
2016-08-16T05:14:45.900Z,1031.93
2016-08-16T05:15:45.904Z,1031.81
2016-08-16T05:16:45.907Z,1031.69
2016-08-16T05:17:45.906Z,1031.58
2016-08-16T05:18:45.905Z,1031.48
2016-08-16T05:19:45.908Z,1031.34
2016-08-16T05:20:45.912Z,1031.28
2016-08-16T05:21:45.916Z,1031.18
2016-08-16T05:22:45.918Z,1031.09
2016-08-16T05:23:45.921Z,1030.98
2016-08-16T05:24:45.923Z,1030.86
2016-08-16T05:25:45.926Z,1030.68
2016-08-16T05:26:45.930Z,1030.61
2016-08-16T05:27:45.935Z,1030.68
2016-08-16T05:28:45.940Z,1030.98
2016-08-16T05:29:45.945Z,1031.18
2016-08-16T05:30:45.949Z,1031.32
2016-08-16T05:31:45.963Z,1031.44
2016-08-16T05:32:45.962Z,1031.56
2016-08-16T05:33:45.966Z,1031.7
2016-08-16T05:34:47.126Z,1031.88
2016-08-16T05:35:45.978Z,1032.11
2016-08-16T05:36:45.981Z,1032.33
2016-08-16T05:37:45.985Z,1032.54
2016-08-16T05:38:45.994Z,1032.68
2016-08-16T05:39:45.997Z,1032.77
2016-08-16T05:40:46.002Z,1032.86
2016-08-16T05:41:46.005Z,1032.92
2016-08-16T05:42:46.010Z,1032.93
2016-08-16T05:43:46.994Z,1032.93
2016-08-16T05:44:46.020Z,1032.9
2016-08-16T05:45:46.023Z,1032.85
2016-08-16T05:46:46.029Z,1032.64
2016-08-16T05:47:46.030Z,1032.66
2016-08-16T05:48:46.035Z,1032.3
2016-08-16T05:49:46.040Z,1032.05
2016-08-16T05:50:46.044Z,1032.03
2016-08-16T05:51:46.047Z,1031.75
2016-08-16T05:52:46.052Z,1031.34
2016-08-16T05:53:46.056Z,1031.37
2016-08-16T05:54:46.062Z,1031.26
2016-08-16T05:55:46.068Z,1031.21
2016-08-16T05:56:46.072Z,1030.81
2016-08-16T05:57:46.075Z,1031.03
2016-08-16T05:58:46.081Z,1031.24
2016-08-16T05:59:46.085Z,1031.31
2016-08-16T06:00:46.096Z,1031.35
2016-08-16T06:01:46.098Z,1031.56
2016-08-16T06:02:46.100Z,1031.28
2016-08-16T06:03:46.107Z,1031.26
2016-08-16T06:04:46.124Z,1031.38
2016-08-16T06:05:46.118Z,1031.2
2016-08-16T06:06:46.126Z,1031.31
2016-08-16T06:07:46.129Z,1031.32
2016-08-16T06:08:46.137Z,1031.41
2016-08-16T06:09:46.139Z,1031.44
2016-08-16T06:10:46.245Z,1031.5
2016-08-16T06:11:46.453Z,1031.44
2016-08-16T06:12:46.157Z,1031.53
2016-08-16T06:13:46.163Z,1031.6
2016-08-16T06:14:46.169Z,1031.62
2016-08-16T06:15:46.175Z,1031.64
2016-08-16T06:16:46.179Z,1031.53
2016-08-16T06:17:46.188Z,1031.55
2016-08-16T06:18:46.203Z,1031.55
2016-08-16T06:19:46.198Z,1031.61
2016-08-16T06:20:46.203Z,1031.61
2016-08-16T06:21:46.208Z,1031.55
2016-08-16T06:22:46.214Z,1031.58
2016-08-16T06:23:46.216Z,1031.71
2016-08-16T06:24:46.222Z,1031.76
2016-08-16T06:25:46.240Z,1031.66
2016-08-16T06:26:46.236Z,1031.69
2016-08-16T06:27:46.240Z,1031.56
2016-08-16T06:28:46.244Z,1031.41
2016-08-16T06:29:46.251Z,1031.39
2016-08-16T06:30:46.254Z,1031.48
2016-08-16T06:31:46.258Z,1031.51
2016-08-16T06:32:46.267Z,1031.84
2016-08-16T06:33:46.271Z,1031.29
2016-08-16T06:34:46.276Z,1031.49
2016-08-16T06:35:46.280Z,1031.48
2016-08-16T06:36:46.286Z,1031.62
2016-08-16T06:37:46.291Z,1031.59
2016-08-16T06:38:46.296Z,1031.77
2016-08-16T06:39:46.302Z,1031.96
2016-08-16T06:40:46.309Z,1032.1
2016-08-16T06:41:46.314Z,1032.23
2016-08-16T06:42:46.315Z,1032.25
2016-08-16T06:43:46.321Z,1032.12
2016-08-16T06:44:46.325Z,1032.05
2016-08-16T06:45:46.338Z,1031.74
2016-08-16T06:46:46.335Z,1031.68
2016-08-16T06:47:46.344Z,1031.64
2016-08-16T06:48:46.345Z,1031.87
2016-08-16T06:49:46.350Z,1032.11
2016-08-16T06:50:46.354Z,1032.16
2016-08-16T06:51:46.359Z,1032.09
2016-08-16T06:52:46.365Z,1031.96
2016-08-16T06:53:46.368Z,1031.87
2016-08-16T06:54:46.373Z,1031.91
2016-08-16T06:55:46.380Z,1031.95
2016-08-16T06:56:46.382Z,1031.97
2016-08-16T06:57:46.387Z,1032.07
2016-08-16T06:59:46.395Z,1032.17
2016-08-16T07:00:46.403Z,1032.25
2016-08-16T07:01:46.406Z,1032.34
2016-08-16T07:02:46.410Z,1032.41
2016-08-16T07:03:46.413Z,1032.51
2016-08-16T07:04:46.426Z,1031.83
2016-08-16T07:05:46.421Z,1031.7
2016-08-16T07:06:46.430Z,1031.46
2016-08-16T07:07:46.432Z,1031.47
2016-08-16T07:08:46.437Z,1031.47
2016-08-16T07:09:46.442Z,1031.52
2016-08-16T07:10:46.443Z,1031.72
2016-08-16T07:11:46.450Z,1031.5
2016-08-16T07:12:46.452Z,1031.61
2016-08-16T07:13:46.456Z,1031.56
2016-08-16T07:14:46.462Z,1031.49
2016-08-16T07:15:46.466Z,1031.4
2016-08-16T07:16:46.473Z,1031.43
2016-08-16T07:17:46.476Z,1031.31
2016-08-16T07:18:46.479Z,1030.81
2016-08-16T07:19:46.485Z,1030.32
2016-08-16T07:20:46.489Z,1030.24
2016-08-16T07:21:46.500Z,1029.86
2016-08-16T07:22:46.503Z,1029.7
2016-08-16T07:23:46.506Z,1029.62
2016-08-16T07:24:46.513Z,1029.25
2016-08-16T07:25:46.521Z,1030.02
2016-08-16T07:26:46.524Z,1029.47
2016-08-16T07:27:46.532Z,1029.03
2016-08-16T07:28:46.536Z,1029.41
2016-08-16T07:29:46.893Z,1028.95
2016-08-16T07:30:46.552Z,1028.37
2016-08-16T07:31:46.559Z,1028
2016-08-16T07:32:46.565Z,1027.79
2016-08-16T07:33:46.571Z,1027.68
2016-08-16T07:34:46.580Z,1027.51
2016-08-16T07:35:46.588Z,1027.44
2016-08-16T07:36:46.598Z,1027.37
2016-08-16T07:37:46.607Z,1027.42
2016-08-16T07:38:46.614Z,1027.39
2016-08-16T07:39:46.626Z,1027.33
2016-08-16T07:40:46.633Z,1027.39
2016-08-16T07:41:46.645Z,1027.46
2016-08-16T07:42:46.655Z,1027.48
2016-08-16T07:43:46.662Z,1027.5
2016-08-16T07:44:46.675Z,1027.52
2016-08-16T07:45:46.685Z,1027.46
2016-08-16T07:46:46.694Z,1027.37
2016-08-16T07:47:46.708Z,1027.19
2016-08-16T07:48:46.715Z,1026.95
2016-08-16T07:49:46.727Z,1026.82
2016-08-16T07:50:46.740Z,1026.65
2016-08-16T07:51:46.751Z,1026.53
2016-08-16T07:52:46.762Z,1026.54
2016-08-16T07:53:46.774Z,1026.6
2016-08-16T07:54:46.788Z,1026.64
2016-08-16T07:55:46.800Z,1026.49
2016-08-16T07:56:46.813Z,1026.22
2016-08-16T07:57:46.824Z,1026.04
2016-08-16T07:58:46.836Z,1025.84
2016-08-16T07:59:46.851Z,1025.69
2016-08-16T08:00:46.865Z,1025.63
2016-08-16T08:01:46.877Z,1025.61
2016-08-16T08:02:46.890Z,1025.48
2016-08-16T08:03:46.906Z,1025.32
2016-08-16T08:04:46.920Z,1025.15
2016-08-16T08:05:46.933Z,1025.6
2016-08-16T08:06:46.965Z,1025.78
2016-08-16T08:07:46.964Z,1026.92
2016-08-16T08:08:46.979Z,1027.97
2016-08-16T08:09:46.992Z,1028.83
2016-08-16T08:10:47.007Z,1029.52
2016-08-16T08:11:47.021Z,1029.87
2016-08-16T08:12:47.032Z,1030.38
2016-08-16T08:13:47.047Z,1028.94
2016-08-16T08:14:47.057Z,1029.31
2016-08-16T08:15:47.071Z,1029.93
2016-08-16T08:16:47.791Z,1030.47
2016-08-16T08:17:47.093Z,1030.92
2016-08-16T08:18:47.108Z,1031.38
2016-08-16T08:19:47.122Z,1031.41
2016-08-16T08:20:47.132Z,1031.76
2016-08-16T08:21:47.140Z,1031.65
2016-08-16T08:22:47.150Z,1031.15
2016-08-16T08:23:47.161Z,1031.44
2016-08-16T08:24:47.171Z,1030.77
2016-08-16T08:25:47.187Z,1030.23
2016-08-16T08:26:47.191Z,1029.79
2016-08-16T08:27:47.200Z,1029.14
2016-08-16T08:28:47.210Z,1029.19
2016-08-16T08:29:47.222Z,1029.06
2016-08-16T08:30:47.230Z,1028.81
2016-08-16T08:31:47.239Z,1028.53
2016-08-16T08:32:47.251Z,1028.04
2016-08-16T08:33:47.272Z,1027.88
2016-08-16T08:34:47.270Z,1028.49
2016-08-16T08:35:47.281Z,1029.31
2016-08-16T08:36:47.291Z,1030.08
2016-08-16T08:37:47.302Z,1030.45
2016-08-16T08:38:47.310Z,1030.86
2016-08-16T08:39:47.319Z,1031.11
2016-08-16T08:40:47.342Z,1031.25
2016-08-16T08:41:47.341Z,1031.46
2016-08-16T08:42:47.348Z,1031.53
2016-08-16T08:43:47.359Z,1031.51
2016-08-16T08:44:47.367Z,1031.43
2016-08-16T08:45:47.391Z,1031.45
2016-08-16T08:46:47.385Z,1031.37
2016-08-16T08:47:47.393Z,1031.41
2016-08-16T08:48:47.404Z,1031.54
2016-08-16T08:49:47.412Z,1031.53
2016-08-16T08:50:47.619Z,1031.6
2016-08-16T08:51:47.430Z,1031.66
2016-08-16T08:52:47.439Z,1031.68
2016-08-16T08:53:47.447Z,1031.76
2016-08-16T08:54:47.453Z,1031.89
2016-08-16T08:55:47.460Z,1032.03
2016-08-16T08:56:47.471Z,1032.17
2016-08-16T08:57:47.476Z,1032.28
2016-08-16T08:58:47.486Z,1032.27
2016-08-16T08:59:48.344Z,1032.26
2016-08-16T09:00:47.501Z,1032.26
2016-08-16T09:01:47.508Z,1032.19
2016-08-16T09:02:47.516Z,1032.1
2016-08-16T09:03:47.521Z,1031.99
2016-08-16T09:04:47.529Z,1031.98
2016-08-16T09:05:47.537Z,1031.99
2016-08-16T09:06:47.545Z,1031.99
2016-08-16T09:07:47.550Z,1031.93
2016-08-16T09:08:47.558Z,1031.84
2016-08-16T09:09:47.563Z,1031.82
2016-08-16T09:10:47.589Z,1031.81
2016-08-16T09:11:47.578Z,1031.78
2016-08-16T09:12:47.743Z,1031.78
2016-08-16T09:13:47.592Z,1031.76
2016-08-16T09:14:47.599Z,1031.73
2016-08-16T09:15:47.607Z,1031.79
2016-08-16T09:16:47.612Z,1031.86
2016-08-16T09:17:47.621Z,1031.85
2016-08-16T09:18:47.626Z,1031.87
2016-08-16T09:19:47.633Z,1031.89
2016-08-16T09:20:47.641Z,1031.96
2016-08-16T09:21:47.645Z,1032.02
2016-08-16T09:22:47.656Z,1032.11
2016-08-16T09:23:47.659Z,1032.12
2016-08-16T09:24:47.669Z,1032.2
2016-08-16T09:25:48.697Z,1032.24
2016-08-16T09:26:47.678Z,1032.35
2016-08-16T09:27:47.686Z,1032.43
2016-08-16T09:28:47.693Z,1032.51
2016-08-16T09:29:48.807Z,1032.62
2016-08-16T09:30:48.113Z,1032.8
2016-08-16T09:31:47.710Z,1032.98
2016-08-16T09:32:47.715Z,1033.14
2016-08-16T09:33:47.723Z,1033.2
2016-08-16T09:34:47.729Z,1033.35
2016-08-16T09:35:47.734Z,1033.43
2016-08-16T09:36:47.738Z,1033.4
2016-08-16T09:37:47.743Z,1033.44
2016-08-16T09:38:48.864Z,1033.41
2016-08-16T09:39:48.524Z,1033.31
2016-08-16T09:40:47.759Z,1033.2
2016-08-16T09:41:47.921Z,1033.15
2016-08-16T09:42:47.770Z,1033.05
2016-08-16T09:43:47.772Z,1032.87
2016-08-16T09:44:47.778Z,1032.7
2016-08-16T09:45:47.783Z,1032.58
2016-08-16T09:46:47.785Z,1032.48
2016-08-16T09:47:47.790Z,1032.42
2016-08-16T09:48:47.796Z,1032.36
2016-08-16T09:49:47.798Z,1032.43
2016-08-16T09:50:47.806Z,1032.51
2016-08-16T09:51:47.812Z,1032.7
2016-08-16T09:52:47.812Z,1032.98
2016-08-16T09:53:47.825Z,1033.23
2016-08-16T09:54:47.829Z,1033.34
2016-08-16T09:55:47.828Z,1033.42
2016-08-16T09:56:47.832Z,1033.42
2016-08-16T09:57:47.835Z,1033.38
2016-08-16T09:58:47.841Z,1033.34
2016-08-16T09:59:47.844Z,1033.22
2016-08-16T10:00:49.047Z,1033.05
2016-08-16T10:01:47.850Z,1032.94
2016-08-16T10:02:47.855Z,1032.8
2016-08-16T10:03:47.860Z,1032.66
2016-08-16T10:04:47.866Z,1032.58
2016-08-16T10:05:47.868Z,1032.65
2016-08-16T10:06:47.871Z,1032.65
2016-08-16T10:07:47.882Z,1032.69
2016-08-16T10:08:47.880Z,1032.67
2016-08-16T10:09:47.888Z,1032.61
2016-08-16T10:10:47.889Z,1032.61
2016-08-16T10:11:47.916Z,1032.56
2016-08-16T10:12:47.899Z,1032.54
2016-08-16T10:14:47.905Z,1032.73
2016-08-16T10:15:47.909Z,1032.88
2016-08-16T10:16:47.962Z,1032.93
2016-08-16T10:17:47.917Z,1033
2016-08-16T10:18:47.921Z,1032.99
2016-08-16T10:19:47.926Z,1032.82
2016-08-16T10:20:47.927Z,1032.65
2016-08-16T10:21:47.934Z,1032.42
2016-08-16T10:22:47.934Z,1032.23
2016-08-16T10:23:47.942Z,1032.02
2016-08-16T10:24:47.942Z,1031.88
2016-08-16T10:25:47.949Z,1031.84
2016-08-16T10:26:47.952Z,1031.97
2016-08-16T10:27:47.956Z,1032.14
2016-08-16T10:28:47.957Z,1032.31
2016-08-16T10:29:47.963Z,1032.49
2016-08-16T10:30:47.968Z,1032.57
2016-08-16T10:31:47.974Z,1032.68
2016-08-16T10:32:47.974Z,1032.72
2016-08-16T10:33:47.978Z,1032.68
2016-08-16T10:34:47.986Z,1032.62
2016-08-16T10:35:47.988Z,1032.55
2016-08-16T10:36:47.991Z,1032.46
2016-08-16T10:37:47.997Z,1032.36
2016-08-16T10:38:47.999Z,1032.24
2016-08-16T10:39:48.002Z,1032.19
2016-08-16T10:40:48.005Z,1032.18
2016-08-16T10:41:48.010Z,1032.14
2016-08-16T10:42:48.014Z,1032.26
2016-08-16T10:43:48.022Z,1032.32
2016-08-16T10:44:48.023Z,1032.48
2016-08-16T10:45:48.025Z,1032.64
2016-08-16T10:46:48.030Z,1032.7
2016-08-16T10:47:48.035Z,1032.83
2016-08-16T10:48:48.037Z,1032.85
2016-08-16T10:49:48.043Z,1032.81
2016-08-16T10:50:48.044Z,1032.76
2016-08-16T10:51:48.050Z,1032.68
2016-08-16T10:52:48.053Z,1032.51
2016-08-16T10:53:48.054Z,1032.35
2016-08-16T10:54:48.058Z,1032.26
2016-08-16T10:55:48.063Z,1032.21
2016-08-16T10:56:48.066Z,1032.11
2016-08-16T10:57:48.070Z,1032.05
2016-08-16T10:58:48.369Z,1031.96
2016-08-16T10:59:48.081Z,1031.84
2016-08-16T11:00:48.083Z,1031.8
2016-08-16T11:01:48.085Z,1031.8
2016-08-16T11:02:48.093Z,1031.87
2016-08-16T11:03:48.093Z,1032.03
2016-08-16T11:04:48.099Z,1032.11
2016-08-16T11:05:48.100Z,1032.15
2016-08-16T11:06:48.106Z,1032.23
2016-08-16T11:08:48.113Z,1032.17
2016-08-16T11:09:48.116Z,1032.14
2016-08-16T11:10:48.122Z,1032.19
2016-08-16T11:11:48.126Z,1032.15
2016-08-16T11:12:48.127Z,1032.16
2016-08-16T11:13:48.131Z,1032.2
2016-08-16T11:14:48.137Z,1032.2
2016-08-16T11:15:48.140Z,1032.21
2016-08-16T11:16:48.142Z,1032.19
2016-08-16T11:17:48.146Z,1032.19
2016-08-16T11:18:48.151Z,1032.1
2016-08-16T11:19:48.155Z,1032.02
2016-08-16T11:20:48.158Z,1032.01
2016-08-16T11:21:48.164Z,1031.96
2016-08-16T11:22:48.171Z,1031.99
2016-08-16T11:23:48.173Z,1032.07
2016-08-16T11:25:00.905Z,1032.12
2016-08-16T11:26:48.181Z,1032.3
2016-08-16T11:27:48.184Z,1032.36
2016-08-16T11:28:48.589Z,1032.44
2016-08-16T11:29:48.191Z,1032.5
2016-08-16T11:30:48.194Z,1032.6
2016-08-16T11:31:48.197Z,1032.75
2016-08-16T11:32:48.199Z,1032.66
2016-08-16T11:33:48.203Z,1032.58
2016-08-16T11:34:48.208Z,1032.51
2016-08-16T11:35:48.311Z,1032.35
2016-08-16T11:36:48.414Z,1032.3
2016-08-16T11:37:48.216Z,1032.18
2016-08-16T11:38:48.237Z,1032.15
2016-08-16T11:39:48.224Z,1032.11
2016-08-16T11:40:48.225Z,1032.04
2016-08-16T11:41:48.227Z,1031.96
2016-08-16T11:42:48.234Z,1031.83
2016-08-16T11:43:48.235Z,1031.7
2016-08-16T11:44:48.243Z,1031.6
2016-08-16T11:45:48.243Z,1031.47
2016-08-16T11:46:48.248Z,1031.4
2016-08-16T11:47:48.251Z,1031.3
2016-08-16T11:48:48.251Z,1031.28
2016-08-16T11:49:48.255Z,1031.24
2016-08-16T11:50:48.257Z,1031.22
2016-08-16T11:51:48.263Z,1031.23
2016-08-16T11:52:48.267Z,1031.28
2016-08-16T11:53:54.533Z,1031.3
2016-08-16T11:54:48.275Z,1031.5
2016-08-16T11:55:48.281Z,1031.63
2016-08-16T11:56:48.284Z,1031.77
2016-08-16T11:58:48.291Z,1031.94
2016-08-16T11:59:48.293Z,1031.97
2016-08-16T12:00:48.297Z,1032.02
2016-08-16T12:01:48.299Z,1032.08
2016-08-16T12:02:48.304Z,1032.06
2016-08-16T12:04:01.037Z,1032
2016-08-16T12:04:48.963Z,1031.98
2016-08-16T12:05:48.315Z,1031.91
2016-08-16T12:06:48.487Z,1031.83
2016-08-16T12:07:48.321Z,1031.72
2016-08-16T12:08:48.323Z,1031.58
2016-08-16T12:09:48.329Z,1031.43
2016-08-16T12:10:48.331Z,1031.32
2016-08-16T12:12:48.339Z,1031
2016-08-16T12:13:48.651Z,1030.82
2016-08-16T12:14:54.606Z,1030.71
2016-08-16T12:16:48.353Z,1030.53
2016-08-16T12:18:48.362Z,1030.41
2016-08-16T12:19:48.364Z,1030.37
2016-08-16T12:20:48.376Z,1030.31
2016-08-16T12:21:48.373Z,1030.31